Time;durP1;ratioP1;P1;durP2;ratioP2;P2;SDS_P1;SDS_P2;PMS_P1;PMS_P2;Temp;Humidity;BMP_temperature;BMP_pressure;BME280_temperature;BME280_humidity;BME280_pressure;Samples;Min_cycle;Max_cycle;Signal;HPM_P1;HPM_P2
2021/12/03 07:01:32;;;;;;;41.30;5.05;;;11.60;99.90;;;;;;5434397;23;20035;-83
2021/12/03 07:04:06;;;;;;;43.03;5.68;;;11.60;99.90;;;;;;4941788;29;20047;-82
2021/12/03 07:06:33;;;;;;;38.10;5.72;;;11.70;99.90;;;;;;4941119;29;20047;-82
2021/12/03 07:09:00;;;;;;;37.22;4.43;;;11.70;99.90;;;;;;4929245;29;20279;-82
2021/12/03 07:11:27;;;;;;;42.63;5.40;;;11.70;99.90;;;;;;4939659;29;20107;-85
2021/12/03 07:13:54;;;;;;;33.58;4.03;;;11.70;99.90;;;;;;4941024;29;20047;-81
2021/12/03 07:16:21;;;;;;;32.80;4.50;;;11.70;99.90;;;;;;4950164;29;20431;-82
2021/12/03 07:18:48;;;;;;;41.70;4.90;;;11.70;99.90;;;;;;4950713;29;20102;-82
2021/12/03 07:21:15;;;;;;;43.75;4.72;;;11.70;99.90;;;;;;4938496;29;20083;-82
2021/12/03 07:23:42;;;;;;;34.75;4.70;;;11.70;99.90;;;;;;4917949;29;20119;-82
2021/12/03 07:26:09;;;;;;;32.60;4.53;;;11.80;99.90;;;;;;4940809;29;20539;-83
2021/12/03 07:28:36;;;;;;;46.58;5.47;;;11.80;99.90;;;;;;4950731;28;20464;-82
2021/12/03 07:31:03;;;;;;;50.45;6.70;;;11.80;99.90;;;;;;4939257;29;20047;-82
2021/12/03 07:33:33;;;;;;;41.00;6.55;;;11.80;99.90;;;;;;4953796;29;20381;-82
2021/12/03 07:36:00;;;;;;;39.33;5.50;;;11.80;99.90;;;;;;4944166;29;20095;-83
2021/12/03 07:38:27;;;;;;;37.03;4.82;;;11.80;99.90;;;;;;4946569;28;20098;-83
2021/12/03 07:40:54;;;;;;;41.85;6.10;;;11.80;99.90;;;;;;4932766;29;20083;-83
2021/12/03 07:43:21;;;;;;;30.20;4.57;;;11.80;99.90;;;;;;4952266;28;20051;-83
2021/12/03 07:45:49;;;;;;;35.30;4.93;;;11.90;99.90;;;;;;4938437;29;20138;-83
2021/12/03 07:48:17;;;;;;;39.80;5.90;;;11.90;99.90;;;;;;4952112;29;20078;-84
2021/12/03 07:50:44;;;;;;;39.80;5.32;;;11.90;99.90;;;;;;4928764;29;20416;-83
2021/12/03 07:53:14;;;;;;;;;;;11.90;99.90;;;;;;4941888;28;20046;-84
2021/12/03 07:55:43;;;;;;;30.02;3.58;;;11.90;99.90;;;;;;4940562;28;20329;-83
2021/12/03 07:58:10;;;;;;;14.48;2.53;;;11.90;99.90;;;;;;4937152;29;20063;-83
2021/12/03 08:00:37;;;;;;;17.50;2.83;;;11.90;99.90;;;;;;4942671;29;20138;-84
2021/12/03 08:03:15;;;;;;;11.93;2.73;;;11.90;99.90;;;;;;4952192;29;20070;-83
2021/12/03 08:05:43;;;;;;;8.53;2.63;;;11.90;99.90;;;;;;4952532;29;20703;-83
2021/12/03 08:08:10;;;;;;;17.30;3.03;;;11.90;99.90;;;;;;4952427;29;20102;-84
2021/12/03 08:10:37;;;;;;;8.73;1.83;;;12.00;99.90;;;;;;4935342;29;20039;-83
2021/12/03 08:13:04;;;;;;;8.18;2.08;;;12.00;99.90;;;;;;4952782;29;20106;-83
2021/12/03 08:15:36;;;;;;;7.22;3.28;;;12.00;99.90;;;;;;4950741;29;20055;-84
2021/12/03 08:18:04;;;;;;;12.93;3.20;;;12.00;99.90;;;;;;4952110;29;20106;-85
2021/12/03 08:20:32;;;;;;;5.63;2.67;;;12.00;99.90;;;;;;4952120;29;20106;-86
2021/12/03 08:23:00;;;;;;;3.88;2.33;;;12.00;99.90;;;;;;4935711;29;20055;-84
2021/12/03 08:25:31;;;;;;;2.73;1.40;;;12.00;99.90;;;;;;4951914;29;20101;-84
2021/12/03 08:27:59;;;;;;;4.72;1.80;;;12.00;99.90;;;;;;4954271;29;20279;-84
2021/12/03 08:30:29;;;;;;;10.60;2.47;;;12.00;99.90;;;;;;4954468;29;20055;-84
2021/12/03 08:32:58;;;;;;;3.85;1.40;;;12.00;99.90;;;;;;4954741;29;20180;-83
2021/12/03 08:35:25;;;;;;;4.07;1.38;;;12.00;99.90;;;;;;4953997;28;20047;-86
2021/12/03 08:37:52;;;;;;;4.05;1.65;;;12.10;99.90;;;;;;4953942;28;20055;-86
2021/12/03 08:40:22;;;;;;;4.40;1.20;;;12.10;99.90;;;;;;4938278;29;20051;-84
2021/12/03 08:42:49;;;;;;;2.50;0.95;;;12.10;99.90;;;;;;4954324;28;20055;-84
2021/12/03 08:45:18;;;;;;;1.95;0.90;;;12.10;99.90;;;;;;4934908;29;20102;-85
2021/12/03 08:47:49;;;;;;;;;;;12.10;99.90;;;;;;4954619;29;20408;-85
2021/12/03 08:50:26;;;;;;;2.45;0.75;;;12.10;99.90;;;;;;4953216;29;19922;-85
2021/12/03 08:55:38;;;;;;;4.50;0.57;;;12.10;99.90;;;;;;4953452;29;20119;-84
2021/12/03 08:58:05;;;;;;;2.25;0.70;;;12.10;99.90;;;;;;4953332;29;20047;-84
2021/12/03 09:00:34;;;;;;;1.17;0.47;;;12.20;99.90;;;;;;4953479;28;20106;-85
2021/12/03 09:03:01;;;;;;;1.45;0.30;;;12.20;99.90;;;;;;4953740;29;20126;-83
2021/12/03 09:05:31;;;;;;;2.47;0.35;;;12.20;99.90;;;;;;4952956;29;20121;-84
2021/12/03 09:08:22;;;;;;;1.08;0.38;;;12.30;99.90;;;;;;4952990;29;20240;-83
2021/12/03 09:10:49;;;;;;;1.02;0.32;;;12.30;99.90;;;;;;4952895;29;20050;-83
2021/12/03 09:13:16;;;;;;;1.63;0.55;;;12.30;99.90;;;;;;4952544;29;20400;-83
2021/12/03 09:15:54;;;;;;;3.10;0.60;;;12.30;99.90;;;;;;4953691;29;20051;-85
2021/12/03 09:18:30;;;;;;;2.90;0.30;;;12.30;99.90;;;;;;4934054;29;20051;-85
2021/12/03 09:21:23;;;;;;;2.08;0.60;;;12.40;99.90;;;;;;4951014;29;20103;-83
2021/12/03 09:26:30;;;;;;;9.32;0.50;;;12.40;99.90;;;;;;4953034;29;20047;-86
2021/12/03 09:29:27;;;;;;;3.05;0.60;;;12.40;99.90;;;;;;4952436;29;20542;-83
2021/12/03 09:31:56;;;;;;;1.45;0.30;;;12.50;99.90;;;;;;4951926;29;20511;-83
2021/12/03 09:34:24;;;;;;;0.40;0.20;;;12.50;99.90;;;;;;4952046;29;20525;-83
2021/12/03 09:36:51;;;;;;;2.07;0.20;;;12.50;99.90;;;;;;4952590;29;20055;-83
2021/12/03 09:39:20;;;;;;;1.17;0.50;;;12.50;99.90;;;;;;4951272;29;20468;-82
2021/12/03 09:41:49;;;;;;;1.67;0.30;;;12.60;99.90;;;;;;4951682;29;20483;-83
2021/12/03 09:44:17;;;;;;;1.85;0.40;;;12.60;99.90;;;;;;4934155;29;20059;-83
2021/12/03 09:46:44;;;;;;;0.80;0.20;;;12.60;99.90;;;;;;4951902;29;20047;-83
2021/12/03 09:49:35;;;;;;;2.28;0.40;;;12.60;99.90;;;;;;4934614;29;20094;-83
2021/12/03 09:52:10;;;;;;;0.40;0.20;;;12.60;99.90;;;;;;4948560;28;20058;-83
2021/12/03 09:54:46;;;;;;;1.23;0.30;;;12.70;99.90;;;;;;4951896;29;20039;-82
2021/12/03 09:57:22;;;;;;;2.10;0.30;;;12.70;99.90;;;;;;4951558;29;20051;-83
2021/12/03 10:12:44;;;;;;;5.10;1.10;;;12.80;99.90;;;;;;4952195;29;20118;-82
2021/12/03 10:15:14;;;;;;;4.53;0.80;;;12.80;99.90;;;;;;4951033;29;20055;-81
2021/12/03 10:17:56;;;;;;;6.35;0.90;;;12.80;99.90;;;;;;4930394;29;20094;-83
2021/12/03 10:20:32;;;;;;;5.45;0.98;;;12.80;99.90;;;;;;4950683;29;20051;-83
2021/12/03 10:24:02;;;;;;;5.22;0.90;;;12.90;99.90;;;;;;4951518;29;20055;-81
2021/12/03 11:08:02;;;;;;;3.17;0.57;;;13.10;99.90;;;;;;4939978;28;20061;-83
2021/12/03 11:35:49;;;;;;;7.07;1.15;;;13.10;99.90;;;;;;4953747;29;20059;-83
2021/12/03 12:21:09;;;;;;;1.60;0.50;;;13.10;99.90;;;;;;4815286;29;20565;-83
2021/12/03 13:11:59;;;;;;;7.18;1.23;;;13.10;99.90;;;;;;4951177;29;20579;-82
2021/12/03 13:22:37;;;;;;;15.25;2.08;;;13.10;99.90;;;;;;4951183;29;20054;-81
2021/12/03 14:40:50;;;;;;;50.92;6.13;;;13.00;99.90;;;;;;4840825;29;20045;-82
2021/12/03 14:46:15;;;;;;;40.03;5.50;;;13.00;99.90;;;;;;4858096;29;20068;-82
2021/12/03 14:49:05;;;;;;;42.50;5.78;;;12.90;99.90;;;;;;4857437;29;20069;-82
2021/12/03 14:55:06;;;;;;;30.20;4.95;;;12.90;99.90;;;;;;4868651;29;20060;-82
2021/12/03 14:57:57;;;;;;;39.92;5.68;;;12.90;99.90;;;;;;4855877;29;20049;-81
2021/12/03 15:04:01;;;;;;;36.65;5.15;;;12.90;99.90;;;;;;4890256;29;20064;-82
2021/12/03 15:20:20;;;;;;;44.47;6.43;;;12.90;99.90;;;;;;4968898;28;20175;-82
2021/12/03 15:22:49;;;;;;;64.72;7.82;;;12.90;99.90;;;;;;4955192;28;20582;-83
2021/12/03 15:36:46;;;;;;;39.58;6.05;;;12.90;99.90;;;;;;4890330;29;20053;-82
2021/12/03 15:58:30;;;;;;;37.97;4.60;;;12.90;99.90;;;;;;4800309;29;20059;-82
2021/12/03 16:03:50;;;;;;;31.58;4.38;;;12.90;99.90;;;;;;4801655;29;20130;-82
2021/12/03 16:09:24;;;;;;;42.25;5.57;;;12.90;99.90;;;;;;4798632;29;20138;-82
2021/12/03 16:11:59;;;;;;;53.30;8.00;;;12.80;99.90;;;;;;4800618;29;20405;-82
2021/12/03 16:46:42;;;;;;;61.10;7.63;;;12.70;99.90;;;;;;4922169;28;20059;-82
2021/12/03 16:49:48;;;;;;;40.55;4.78;;;12.70;99.90;;;;;;4948318;28;20055;-81
2021/12/03 16:52:06;;;;;;;33.88;4.22;;;12.70;99.90;;;;;;4948376;28;20051;-81
2021/12/03 16:54:56;;;;;;;50.78;5.32;;;12.70;99.90;;;;;;4935155;29;20482;-82
2021/12/03 16:57:29;;;;;;;32.90;4.47;;;12.70;99.90;;;;;;4933140;29;20051;-81
2021/12/03 16:59:59;;;;;;;57.58;6.72;;;12.70;99.90;;;;;;4952249;28;20063;-82
2021/12/03 17:03:14;;;;;;;55.63;6.40;;;12.70;99.90;;;;;;4964459;28;20070;-82
2021/12/03 17:05:31;;;;;;;38.85;4.80;;;12.70;99.90;;;;;;4954895;28;20066;-81
2021/12/03 17:51:55;;;;;;;31.75;4.85;;;12.50;99.90;;;;;;4870654;29;20049;-83
2021/12/03 17:54:21;;;;;;;26.38;5.18;;;12.50;99.90;;;;;;4856095;29;20125;-82
2021/12/03 17:56:49;;;;;;;54.08;5.47;;;12.50;99.90;;;;;;4866648;29;20160;-82
2021/12/03 17:59:27;;;;;;;33.83;5.38;;;12.50;99.90;;;;;;4867609;29;20049;-82
2021/12/03 18:05:00;;;;;;;37.50;5.38;;;12.50;99.90;;;;;;4858807;29;20056;-82
2021/12/03 18:18:08;;;;;;;31.58;5.68;;;12.40;99.90;;;;;;4878636;29;20076;-82
2021/12/03 18:51:15;;;;;;;46.13;6.70;;;12.50;99.90;;;;;;4955985;28;20039;-82
2021/12/03 18:56:29;;;;;;;;;;;12.50;99.90;;;;;;4954583;28;20051;-83
2021/12/03 18:58:58;;;;;;;41.28;5.82;;;12.50;99.90;;;;;;4953829;28;19926;-84
2021/12/03 19:01:28;;;;;;;35.28;5.72;;;12.50;99.90;;;;;;4949468;28;20059;-83
2021/12/03 19:06:51;;;;;;;29.85;3.58;;;12.50;99.90;;;;;;4944999;28;20081;-82
2021/12/03 19:14:53;;;;;;;29.45;4.70;;;12.60;99.90;;;;;;4884459;29;20450;-83
2021/12/03 19:17:22;;;;;;;28.60;5.65;;;12.60;99.90;;;;;;4881795;29;20533;-82
2021/12/03 19:19:52;;;;;;;34.63;5.57;;;12.60;99.90;;;;;;4883403;29;20584;-81
2021/12/03 19:22:21;;;;;;;17.33;2.85;;;12.60;99.90;;;;;;4881798;29;20514;-81
2021/12/03 19:24:48;;;;;;;18.90;4.03;;;12.60;99.90;;;;;;4886618;29;20483;-82
2021/12/03 19:27:15;;;;;;;32.28;6.82;;;12.60;99.90;;;;;;4886942;29;20048;-82
2021/12/03 19:29:43;;;;;;;21.10;3.70;;;12.70;99.90;;;;;;4887381;29;20056;-82
2021/12/03 19:32:10;;;;;;;20.33;3.95;;;12.60;99.90;;;;;;4873453;29;20048;-82
2021/12/03 19:34:37;;;;;;;33.38;6.18;;;12.60;99.90;;;;;;4886027;29;20055;-82
2021/12/03 19:37:04;;;;;;;17.35;4.07;;;12.70;99.90;;;;;;4889011;29;20057;-82
2021/12/03 19:39:31;;;;;;;30.02;4.78;;;12.70;99.90;;;;;;4889533;29;20112;-82
2021/12/03 19:42:10;;;;;;;17.35;4.15;;;12.60;99.90;;;;;;4887071;29;20108;-82
2021/12/03 19:44:44;;;;;;;;;;;12.70;99.90;;;;;;4892089;28;20612;-83
2021/12/03 19:47:13;;;;;;;39.63;6.00;;;12.70;99.90;;;;;;4923210;28;19931;-81
2021/12/03 19:52:23;;;;;;;25.80;3.63;;;12.70;99.90;;;;;;4947286;28;20047;-83
2021/12/03 19:54:51;;;;;;;24.00;3.60;;;12.70;99.90;;;;;;4949179;28;20231;-82
2021/12/03 19:57:18;;;;;;;18.08;3.40;;;12.70;99.90;;;;;;4929946;28;20058;-82
2021/12/03 19:59:44;;;;;;;21.23;3.95;;;12.70;99.90;;;;;;4950924;28;20051;-82
2021/12/03 20:02:16;;;;;;;34.22;5.28;;;12.70;99.90;;;;;;4954594;28;20054;-82
2021/12/03 20:04:44;;;;;;;21.75;3.90;;;12.70;99.90;;;;;;4957405;28;20055;-82
2021/12/03 20:07:10;;;;;;;34.15;4.43;;;12.70;99.90;;;;;;4963602;28;20097;-83
2021/12/03 20:10:22;;;;;;;25.88;4.15;;;12.70;99.90;;;;;;4934453;28;20063;-83
2021/12/03 20:12:32;;;;;;;27.58;5.10;;;12.70;99.90;;;;;;4950429;28;20080;-83
2021/12/03 20:15:01;;;;;;;26.00;4.43;;;12.70;99.90;;;;;;4951308;28;20051;-82
2021/12/03 20:17:32;;;;;;;39.22;6.32;;;12.70;99.90;;;;;;4961710;28;20415;-84
2021/12/03 20:20:01;;;;;;;28.08;4.93;;;12.70;99.90;;;;;;4940530;28;20047;-82
2021/12/03 20:22:55;;;;;;;40.63;5.30;;;12.70;99.90;;;;;;4962110;28;20577;-82
2021/12/03 20:28:10;;;;;;;23.38;5.90;;;12.70;99.90;;;;;;4950013;28;20051;-81
2021/12/03 20:30:46;;;;;;;23.17;3.80;;;12.80;99.90;;;;;;4958870;28;20054;-82
2021/12/03 20:38:17;;;;;;;30.98;3.95;;;12.80;99.90;;;;;;4956046;28;20072;-81
2021/12/03 20:40:50;;;;;;;56.92;6.72;;;12.80;99.90;;;;;;4944398;28;20110;-82
2021/12/03 20:43:32;;;;;;;41.13;5.50;;;12.80;99.90;;;;;;4950355;28;20043;-82
2021/12/03 20:48:35;;;;;;;39.70;5.57;;;12.80;99.90;;;;;;4938899;28;20055;-81
2021/12/03 21:10:12;;;;;;;28.88;4.20;;;12.80;99.90;;;;;;4957194;28;20047;-84
2021/12/03 21:12:46;;;;;;;27.35;3.40;;;12.80;99.90;;;;;;4957798;28;20051;-84
2021/12/03 21:15:27;;;;;;;24.90;3.95;;;12.80;99.90;;;;;;4960473;28;20054;-83
2021/12/03 21:20:34;;;;;;;22.77;3.60;;;12.80;99.90;;;;;;4966949;28;20503;-83
2021/12/03 21:23:07;;;;;;;34.60;4.28;;;12.80;99.90;;;;;;4969999;28;20059;-82
2021/12/03 21:25:36;;;;;;;26.00;3.90;;;12.80;99.90;;;;;;4951317;28;20063;-82
2021/12/03 21:28:19;;;;;;;24.65;3.72;;;12.80;99.90;;;;;;4949468;28;20051;-83
2021/12/03 21:31:11;;;;;;;22.13;3.50;;;12.80;99.90;;;;;;4965728;28;20495;-81
2021/12/03 21:39:20;;;;;;;25.60;4.03;;;12.80;99.90;;;;;;4965217;28;20050;-84
2021/12/03 21:41:47;;;;;;;15.45;3.28;;;12.80;99.90;;;;;;4967231;28;20470;-83
2021/12/03 21:44:16;;;;;;;36.97;4.63;;;12.80;99.90;;;;;;4965656;28;20049;-83
2021/12/03 21:46:43;;;;;;;24.38;3.25;;;12.80;99.90;;;;;;4966845;28;20050;-82
2021/12/03 21:49:12;;;;;;;28.08;4.28;;;12.80;99.90;;;;;;4966952;28;20467;-82
2021/12/03 21:51:41;;;;;;;15.50;2.85;;;12.80;99.90;;;;;;4964636;28;20050;-82
2021/12/03 21:54:13;;;;;;;16.92;2.72;;;12.80;99.90;;;;;;4964479;28;20070;-81
2021/12/03 21:56:43;;;;;;;13.77;2.78;;;12.90;99.90;;;;;;4967294;28;20058;-82
2021/12/03 21:59:11;;;;;;;15.40;2.65;;;12.90;99.90;;;;;;4964997;28;20570;-83
2021/12/03 22:01:39;;;;;;;9.68;1.60;;;12.90;99.90;;;;;;4954554;28;20098;-81
2021/12/03 22:04:06;;;;;;;8.60;1.43;;;12.90;99.90;;;;;;4941978;28;20047;-82
2021/12/03 22:06:33;;;;;;;14.15;1.60;;;12.90;99.90;;;;;;4945756;28;20397;-82
2021/12/03 22:09:00;;;;;;;12.95;1.73;;;12.90;99.90;;;;;;4942195;29;20599;-83
2021/12/03 22:11:27;;;;;;;8.40;1.52;;;12.90;99.90;;;;;;4944819;28;20047;-83
2021/12/03 22:13:55;;;;;;;12.02;3.72;;;12.90;99.90;;;;;;4947092;28;20055;-82
2021/12/03 22:16:22;;;;;;;8.32;1.20;;;12.90;99.90;;;;;;4945523;28;20051;-82
2021/12/03 22:18:49;;;;;;;3.97;0.85;;;12.90;99.90;;;;;;4944732;28;20090;-83
2021/12/03 22:21:18;;;;;;;8.73;1.30;;;12.90;99.90;;;;;;4945916;28;20515;-82
2021/12/03 22:23:45;;;;;;;5.07;0.93;;;12.90;99.90;;;;;;4945395;28;20078;-82
2021/12/03 22:26:13;;;;;;;7.13;1.58;;;12.90;99.90;;;;;;4942208;28;20582;-81
2021/12/03 22:28:41;;;;;;;7.22;0.90;;;12.90;99.90;;;;;;4945571;28;20044;-82
2021/12/03 22:31:09;;;;;;;8.55;1.17;;;12.90;99.90;;;;;;4943837;28;20110;-82
2021/12/03 22:33:38;;;;;;;8.23;0.95;;;12.90;99.90;;;;;;4943776;28;20047;-83
2021/12/03 22:36:05;;;;;;;9.00;1.10;;;12.90;99.90;;;;;;4945167;28;20524;-82
2021/12/03 22:38:32;;;;;;;8.05;1.23;;;12.90;99.90;;;;;;4944991;28;20043;-82
2021/12/03 22:40:59;;;;;;;8.20;1.20;;;12.90;99.90;;;;;;4944799;28;20070;-84
2021/12/03 22:43:31;;;;;;;5.32;1.00;;;12.90;99.90;;;;;;4938769;28;20810;-83
2021/12/03 22:46:47;;;;;;;8.07;1.45;;;12.90;99.90;;;;;;4944195;28;20150;-82
2021/12/03 22:51:58;;;;;;;6.95;1.23;;;12.90;99.90;;;;;;4945026;28;20067;-83
2021/12/03 22:54:25;;;;;;;4.63;1.17;;;12.90;99.90;;;;;;4944053;28;20102;-81
2021/12/03 22:56:53;;;;;;;5.60;0.90;;;12.90;99.90;;;;;;4944584;28;20526;-83
2021/12/03 22:59:20;;;;;;;7.60;1.00;;;12.90;99.90;;;;;;4944524;28;20051;-83
2021/12/03 23:01:47;;;;;;;7.35;1.23;;;12.90;99.90;;;;;;4945077;28;20807;-82
2021/12/03 23:04:14;;;;;;;3.22;0.82;;;12.90;99.90;;;;;;4943042;28;20123;-83
2021/12/03 23:06:42;;;;;;;3.67;0.85;;;12.90;99.90;;;;;;4945789;28;20063;-83
2021/12/03 23:09:09;;;;;;;4.60;0.90;;;12.90;99.90;;;;;;4942291;28;20113;-83
2021/12/03 23:11:36;;;;;;;3.55;0.90;;;12.90;99.90;;;;;;4945049;28;20058;-82
2021/12/03 23:14:03;;;;;;;12.20;1.30;;;12.90;99.90;;;;;;4946023;28;20536;-85
2021/12/03 23:16:30;;;;;;;2.85;0.98;;;12.90;99.90;;;;;;4944479;28;20413;-83
2021/12/03 23:18:57;;;;;;;5.72;1.15;;;13.00;99.90;;;;;;4944857;28;20047;-83
2021/12/03 23:21:24;;;;;;;12.88;1.80;;;12.90;99.90;;;;;;4944642;28;20078;-81
2021/12/03 23:23:51;;;;;;;7.90;1.48;;;12.90;99.90;;;;;;4943031;29;20433;-83
2021/12/03 23:26:19;;;;;;;10.55;1.65;;;12.90;99.90;;;;;;4943519;28;20124;-84
2021/12/03 23:28:48;;;;;;;7.77;1.57;;;12.90;99.90;;;;;;4946733;28;20043;-84
2021/12/03 23:31:18;;;;;;;12.07;1.45;;;12.90;99.90;;;;;;4936606;28;20581;-83
2021/12/03 23:33:46;;;;;;;21.13;2.90;;;12.90;99.90;;;;;;4948435;28;20497;-82
2021/12/03 23:36:14;;;;;;;18.58;2.30;;;13.00;99.90;;;;;;4948050;28;20055;-84
2021/12/03 23:38:43;;;;;;;13.98;2.80;;;12.90;99.90;;;;;;4947875;28;20047;-82
2021/12/03 23:41:22;;;;;;;12.80;2.05;;;13.00;99.90;;;;;;4948573;28;20051;-83
2021/12/03 23:43:49;;;;;;;7.85;1.95;;;12.90;99.90;;;;;;4948852;28;20079;-83
2021/12/03 23:46:16;;;;;;;15.80;2.17;;;13.00;99.90;;;;;;4947674;28;20433;-84
2021/12/03 23:48:42;;;;;;;14.52;2.17;;;13.00;99.90;;;;;;4950846;28;20103;-83
2021/12/03 23:51:09;;;;;;;23.33;3.00;;;13.00;99.90;;;;;;4951164;28;20083;-83
2021/12/03 23:53:37;;;;;;;18.40;2.22;;;12.90;99.90;;;;;;4950129;28;20074;-82
2021/12/03 23:56:04;;;;;;;19.80;2.85;;;13.00;99.90;;;;;;4950429;28;20095;-82
2021/12/03 23:58:35;;;;;;;28.67;3.47;;;12.90;99.90;;;;;;4949499;28;20057;-82
